Time;durP1;ratioP1;P1;durP2;ratioP2;P2;SDS_P1;SDS_P2;PMS_P1;PMS_P2;Temp;Humidity;BMP_temperature;BMP_pressure;BME280_temperature;BME280_humidity;BME280_pressure;Samples;Min_cycle;Max_cycle;Signal;HPM_P1;HPM_P2
2022/11/30 00:02:20;;;;;;;39.17;15.77;;;6.60;99.90;;;;;;4941713;28;20043;-67
2022/11/30 00:04:46;;;;;;;44.40;16.35;;;6.70;99.90;;;;;;4944913;28;20118;-69
2022/11/30 00:07:11;;;;;;;46.92;16.90;;;6.80;99.90;;;;;;4942821;29;20118;-69
2022/11/30 00:09:37;;;;;;;43.60;16.25;;;6.80;99.90;;;;;;4944649;29;20035;-69
2022/11/30 00:12:03;;;;;;;34.28;15.23;;;6.80;99.90;;;;;;4943082;28;20046;-67
2022/11/30 00:14:28;;;;;;;32.63;14.02;;;6.80;99.90;;;;;;4944889;28;20033;-67
2022/11/30 00:16:54;;;;;;;32.45;14.80;;;6.70;99.90;;;;;;4943466;29;20159;-67
2022/11/30 00:19:20;;;;;;;41.17;14.38;;;6.80;99.90;;;;;;4943840;28;20071;-67
2022/11/30 00:21:45;;;;;;;49.03;15.55;;;6.70;99.90;;;;;;4945247;29;20047;-67
2022/11/30 00:24:11;;;;;;;35.70;14.93;;;6.60;99.90;;;;;;4944331;29;20346;-67
2022/11/30 00:26:36;;;;;;;34.00;14.10;;;6.50;99.90;;;;;;4929992;29;20033;-67
2022/11/30 00:29:02;;;;;;;31.55;15.15;;;6.50;99.90;;;;;;4943770;29;20035;-69
2022/11/30 00:31:28;;;;;;;39.00;15.45;;;6.50;99.90;;;;;;4936707;29;20028;-69
2022/11/30 00:33:53;;;;;;;30.55;15.52;;;6.60;99.90;;;;;;4945085;29;20039;-70
2022/11/30 00:36:21;;;;;;;30.23;15.27;;;6.70;99.90;;;;;;4940991;29;20050;-69
2022/11/30 00:38:48;;;;;;;37.35;14.73;;;6.60;99.90;;;;;;4933825;28;20027;-66
2022/11/30 00:41:14;;;;;;;30.38;13.98;;;6.60;99.90;;;;;;4943942;29;20027;-69
2022/11/30 00:43:40;;;;;;;37.25;15.02;;;6.60;99.90;;;;;;4944639;29;20372;-69
2022/11/30 00:46:09;;;;;;;32.13;14.93;;;6.70;99.90;;;;;;4921656;29;20086;-68
2022/11/30 00:48:36;;;;;;;59.03;15.90;;;6.70;99.90;;;;;;4942271;29;20430;-68
2022/11/30 00:51:01;;;;;;;36.83;15.25;;;6.70;99.90;;;;;;4925520;29;20394;-68
2022/11/30 00:53:27;;;;;;;92.95;17.50;;;6.70;99.90;;;;;;4926301;29;20299;-68
2022/11/30 00:55:53;;;;;;;30.17;14.60;;;6.60;99.90;;;;;;4933104;29;20604;-68
2022/11/30 00:58:18;;;;;;;33.53;14.45;;;6.60;99.90;;;;;;4944189;28;20438;-67
2022/11/30 01:00:44;;;;;;;34.47;14.63;;;6.50;99.90;;;;;;4943388;29;20031;-68
2022/11/30 01:03:11;;;;;;;27.88;13.80;;;6.60;99.90;;;;;;4925338;29;20426;-68
2022/11/30 01:05:37;;;;;;;51.83;14.02;;;6.70;99.90;;;;;;4932233;29;20118;-68
2022/11/30 01:08:04;;;;;;;24.10;12.68;;;6.70;99.90;;;;;;4944685;28;20046;-68
2022/11/30 01:10:30;;;;;;;25.45;12.80;;;6.70;99.90;;;;;;4943648;29;20471;-67
2022/11/30 01:12:56;;;;;;;28.98;13.48;;;6.80;99.90;;;;;;4943370;29;20031;-68
2022/11/30 01:15:22;;;;;;;58.60;12.73;;;6.80;99.90;;;;;;4941471;28;20038;-68
2022/11/30 01:17:48;;;;;;;24.95;11.25;;;6.90;99.90;;;;;;4944344;28;20368;-68
2022/11/30 01:20:13;;;;;;;22.30;10.98;;;6.90;99.90;;;;;;4944007;28;20035;-68
2022/11/30 01:22:39;;;;;;;26.92;10.98;;;6.90;99.90;;;;;;4944486;29;20047;-68
2022/11/30 01:25:05;;;;;;;27.17;11.45;;;7.00;99.90;;;;;;4940607;29;20470;-68
2022/11/30 01:27:31;;;;;;;28.98;12.65;;;6.90;99.90;;;;;;4939592;28;20110;-68
2022/11/30 01:29:56;;;;;;;27.92;12.13;;;6.90;99.90;;;;;;4938918;28;20071;-68
2022/11/30 01:32:22;;;;;;;27.05;11.70;;;7.00;99.90;;;;;;4927214;28;20057;-68
2022/11/30 01:34:48;;;;;;;27.55;11.70;;;7.10;99.90;;;;;;4938091;29;20366;-69
2022/11/30 01:37:13;;;;;;;26.83;12.77;;;7.10;99.90;;;;;;4944952;29;20597;-68
2022/11/30 01:39:39;;;;;;;25.80;11.85;;;7.10;99.90;;;;;;4946475;28;20163;-67
2022/11/30 01:42:12;;;;;;;27.92;11.30;;;7.10;99.90;;;;;;4947501;28;20034;-68
2022/11/30 01:44:50;;;;;;;27.85;12.02;;;7.10;99.90;;;;;;4944486;29;20050;-68
2022/11/30 01:47:19;;;;;;;30.92;13.02;;;7.10;99.90;;;;;;4947490;28;20042;-68
2022/11/30 01:49:49;;;;;;;26.17;12.00;;;7.00;99.90;;;;;;4929896;28;20036;-68
2022/11/30 01:52:18;;;;;;;29.83;12.52;;;7.10;99.90;;;;;;4937224;29;20557;-68
2022/11/30 01:54:46;;;;;;;29.65;12.57;;;7.10;99.90;;;;;;4947456;28;20042;-68
2022/11/30 01:57:20;;;;;;;26.48;11.40;;;7.10;99.90;;;;;;4945974;29;20058;-68
2022/11/30 01:59:47;;;;;;;25.88;11.38;;;7.10;99.90;;;;;;4944715;28;20310;-68
2022/11/30 02:02:13;;;;;;;26.85;11.48;;;7.20;99.90;;;;;;4946854;28;20386;-68
2022/11/30 02:04:39;;;;;;;24.80;11.05;;;7.20;99.90;;;;;;4946702;28;20035;-68
2022/11/30 02:07:07;;;;;;;25.02;10.77;;;7.30;99.90;;;;;;4946848;28;20041;-68
2022/11/30 02:09:42;;;;;;;27.95;11.60;;;7.20;99.90;;;;;;4944219;28;20635;-68
2022/11/30 02:12:18;;;;;;;28.27;11.98;;;7.20;99.90;;;;;;4946317;29;20508;-68
2022/11/30 02:14:53;;;;;;;20.33;9.77;;;7.30;99.90;;;;;;4947119;28;20131;-68
2022/11/30 02:17:33;;;;;;;25.77;11.48;;;7.30;99.90;;;;;;4944460;29;20711;-68
2022/11/30 02:20:16;;;;;;;23.73;10.57;;;7.40;99.90;;;;;;4941366;28;20042;-67
2022/11/30 02:22:50;;;;;;;27.58;10.77;;;7.50;99.90;;;;;;4946641;29;20067;-68
2022/11/30 02:25:37;;;;;;;24.25;10.65;;;7.50;99.90;;;;;;4939883;28;20046;-68
2022/11/30 02:28:37;;;;;;;26.63;9.93;;;7.50;99.90;;;;;;4941928;28;20031;-68
2022/11/30 02:31:07;;;;;;;23.20;10.43;;;7.50;99.90;;;;;;4948918;28;20031;-69
2022/11/30 02:33:34;;;;;;;23.40;10.93;;;7.50;99.90;;;;;;4949207;28;20491;-67
2022/11/30 02:36:02;;;;;;;34.60;13.05;;;7.50;99.90;;;;;;4948633;28;20489;-68
2022/11/30 02:38:28;;;;;;;24.48;11.07;;;7.40;99.90;;;;;;4928354;29;20414;-68
2022/11/30 02:40:53;;;;;;;27.70;11.48;;;7.50;99.90;;;;;;4946838;28;20031;-68
2022/11/30 02:43:22;;;;;;;25.55;10.68;;;7.50;99.90;;;;;;4945582;28;20050;-68
2022/11/30 02:45:58;;;;;;;29.35;11.48;;;7.40;99.90;;;;;;4946709;29;20414;-68
2022/11/30 02:48:42;;;;;;;31.55;12.45;;;7.30;99.90;;;;;;4943692;28;20031;-68
2022/11/30 02:51:11;;;;;;;23.50;9.20;;;7.30;99.90;;;;;;4928003;29;20075;-68
2022/11/30 02:53:37;;;;;;;25.42;10.88;;;7.30;99.90;;;;;;4928046;29;20498;-68
2022/11/30 02:56:03;;;;;;;27.42;12.13;;;7.30;99.90;;;;;;4928215;29;20123;-68
2022/11/30 02:58:29;;;;;;;32.60;11.70;;;7.30;99.90;;;;;;4942959;28;20046;-68
2022/11/30 03:00:54;;;;;;;27.70;12.02;;;7.30;99.90;;;;;;4942563;28;20517;-68
2022/11/30 03:03:20;;;;;;;30.67;12.07;;;7.30;99.90;;;;;;4926793;29;20570;-68
2022/11/30 03:05:46;;;;;;;25.20;11.50;;;7.40;99.90;;;;;;4940686;28;20043;-68
2022/11/30 03:08:12;;;;;;;27.90;10.85;;;7.50;99.90;;;;;;4943212;28;20039;-68
2022/11/30 03:10:37;;;;;;;28.38;11.98;;;7.50;99.90;;;;;;4943411;29;20094;-68
2022/11/30 03:13:03;;;;;;;24.65;10.68;;;7.60;99.90;;;;;;4941845;28;20450;-68
2022/11/30 03:15:28;;;;;;;30.15;10.90;;;7.50;99.90;;;;;;4926566;29;20034;-68
2022/11/30 03:17:54;;;;;;;30.40;12.02;;;7.50;99.90;;;;;;4942903;28;20098;-68
2022/11/30 03:20:20;;;;;;;30.88;12.05;;;7.50;99.90;;;;;;4944486;28;20031;-68
2022/11/30 03:22:45;;;;;;;25.55;10.90;;;7.60;99.90;;;;;;4944208;28;20043;-67
2022/11/30 03:25:11;;;;;;;24.58;11.38;;;7.60;99.90;;;;;;4941373;28;20082;-68
2022/11/30 03:27:37;;;;;;;26.42;12.00;;;7.70;99.90;;;;;;4926024;29;20411;-68
2022/11/30 03:30:03;;;;;;;26.88;11.38;;;7.70;99.90;;;;;;4925943;29;20036;-68
2022/11/30 03:32:29;;;;;;;26.33;11.75;;;7.70;99.90;;;;;;4925153;28;20035;-68
2022/11/30 03:34:55;;;;;;;26.90;11.32;;;7.80;99.90;;;;;;4944783;29;20487;-68
2022/11/30 03:37:21;;;;;;;30.35;12.30;;;7.80;99.90;;;;;;4941860;29;20195;-68
2022/11/30 03:39:47;;;;;;;31.50;11.85;;;7.90;99.90;;;;;;4940853;28;20070;-68
2022/11/30 03:42:12;;;;;;;26.27;11.45;;;7.90;99.90;;;;;;4945196;28;20031;-68
2022/11/30 03:44:38;;;;;;;26.65;11.77;;;7.80;99.90;;;;;;4944437;28;20287;-68
2022/11/30 03:47:03;;;;;;;28.42;10.95;;;7.90;99.90;;;;;;4942826;29;20501;-68
2022/11/30 03:49:29;;;;;;;25.98;11.18;;;7.90;99.90;;;;;;4941667;28;20053;-68
2022/11/30 03:51:55;;;;;;;29.90;11.98;;;8.00;99.90;;;;;;4922960;29;20034;-68
2022/11/30 03:54:20;;;;;;;27.63;11.68;;;8.00;99.90;;;;;;4944743;28;20449;-68
2022/11/30 03:56:46;;;;;;;29.10;12.38;;;8.00;99.90;;;;;;4945155;29;20042;-68
2022/11/30 03:59:11;;;;;;;29.77;12.25;;;8.00;99.90;;;;;;4944572;29;20494;-68
2022/11/30 04:01:39;;;;;;;26.83;12.52;;;8.00;99.90;;;;;;4941403;29;20138;-67
2022/11/30 04:04:06;;;;;;;32.67;12.38;;;8.00;99.90;;;;;;4937347;29;20371;-68
2022/11/30 04:06:32;;;;;;;26.40;12.07;;;8.00;99.90;;;;;;4945183;28;20391;-68
2022/11/30 04:08:57;;;;;;;28.83;12.90;;;8.10;99.90;;;;;;4944525;29;20039;-68
2022/11/30 04:11:23;;;;;;;26.00;12.00;;;8.10;99.90;;;;;;4944818;29;20055;-68
2022/11/30 04:13:49;;;;;;;23.75;11.70;;;8.10;99.90;;;;;;4940885;29;20039;-68
2022/11/30 04:16:14;;;;;;;31.05;12.05;;;8.10;99.90;;;;;;4941362;29;20158;-68
2022/11/30 04:18:40;;;;;;;30.45;13.00;;;8.00;99.90;;;;;;4945087;29;20282;-68
2022/11/30 04:21:06;;;;;;;30.35;12.32;;;8.10;99.90;;;;;;4944758;29;20110;-68
2022/11/30 04:23:35;;;;;;;29.40;13.02;;;8.10;99.90;;;;;;4942708;28;20039;-68
2022/11/30 04:26:05;;;;;;;23.55;11.38;;;8.10;99.90;;;;;;4941581;28;20031;-68
2022/11/30 04:28:32;;;;;;;30.23;13.27;;;8.10;99.90;;;;;;4928012;29;20123;-68
2022/11/30 04:30:59;;;;;;;32.30;13.75;;;8.00;99.90;;;;;;4945014;28;20038;-68
2022/11/30 04:33:26;;;;;;;31.23;12.75;;;8.00;99.90;;;;;;4943541;29;20035;-68
2022/11/30 04:35:55;;;;;;;28.20;11.55;;;7.90;99.90;;;;;;4944185;29;20031;-68
2022/11/30 04:38:21;;;;;;;25.05;11.70;;;8.00;99.90;;;;;;4942001;28;20031;-68
2022/11/30 04:40:47;;;;;;;27.05;10.88;;;7.90;99.90;;;;;;4945068;28;20046;-68
2022/11/30 04:43:12;;;;;;;30.75;12.73;;;8.00;99.90;;;;;;4943519;29;20562;-68
2022/11/30 04:45:39;;;;;;;32.45;12.13;;;8.00;99.90;;;;;;4940883;28;20082;-68
2022/11/30 04:48:05;;;;;;;27.90;12.52;;;7.80;99.90;;;;;;4941731;28;20078;-68
2022/11/30 04:50:31;;;;;;;25.65;12.00;;;7.70;99.90;;;;;;4939537;29;20518;-68
2022/11/30 04:52:57;;;;;;;29.70;12.48;;;7.70;99.90;;;;;;4926078;29;20154;-68
2022/11/30 04:55:23;;;;;;;32.03;13.10;;;7.60;99.90;;;;;;4932916;28;20126;-68
2022/11/30 04:57:49;;;;;;;31.73;13.50;;;7.60;99.90;;;;;;4929231;29;20106;-68
2022/11/30 05:00:16;;;;;;;33.30;12.98;;;7.60;99.90;;;;;;4919766;28;20122;-69
2022/11/30 05:02:42;;;;;;;30.92;11.80;;;7.60;99.90;;;;;;4945023;28;20107;-68
2022/11/30 05:05:09;;;;;;;28.90;12.48;;;7.60;99.90;;;;;;4950528;28;20028;-68
2022/11/30 05:07:34;;;;;;;32.67;12.93;;;7.60;99.90;;;;;;4949949;28;20037;-68
2022/11/30 05:10:00;;;;;;;35.90;11.95;;;7.60;99.90;;;;;;4945280;28;20122;-68
2022/11/30 05:12:26;;;;;;;30.90;12.10;;;7.70;99.90;;;;;;4940274;29;20073;-68
2022/11/30 05:14:51;;;;;;;25.20;11.43;;;7.60;99.90;;;;;;4939752;29;20043;-67
2022/11/30 05:17:17;;;;;;;28.48;12.18;;;7.60;99.90;;;;;;4953830;28;20041;-68
2022/11/30 05:19:42;;;;;;;25.92;11.35;;;7.70;99.90;;;;;;4933337;28;20043;-68
2022/11/30 05:22:08;;;;;;;27.52;12.15;;;7.70;99.90;;;;;;4948326;29;20372;-68
2022/11/30 05:24:34;;;;;;;26.80;11.90;;;7.70;99.90;;;;;;4947786;28;20035;-68
2022/11/30 05:26:59;;;;;;;32.97;13.02;;;7.80;99.90;;;;;;4946937;29;20031;-68
2022/11/30 05:29:25;;;;;;;30.10;12.60;;;7.80;99.90;;;;;;4945316;28;20087;-68
2022/11/30 05:31:51;;;;;;;31.02;12.70;;;7.80;99.90;;;;;;4947927;29;20046;-68
2022/11/30 05:34:16;;;;;;;29.73;12.73;;;7.80;99.90;;;;;;4947410;28;20032;-68
2022/11/30 05:36:42;;;;;;;31.38;11.75;;;7.80;99.90;;;;;;4947924;29;20293;-68
2022/11/30 05:39:07;;;;;;;27.02;11.48;;;7.80;99.90;;;;;;4941550;28;20039;-68
2022/11/30 05:41:33;;;;;;;32.85;12.50;;;7.90;99.90;;;;;;4928452;29;20387;-68
2022/11/30 05:43:59;;;;;;;30.63;13.10;;;7.90;99.90;;;;;;4933772;28;20095;-68
2022/11/30 05:46:24;;;;;;;30.83;12.32;;;7.80;99.90;;;;;;4928286;29;20447;-68
2022/11/30 05:48:50;;;;;;;30.65;12.15;;;7.80;99.90;;;;;;4944066;28;20039;-68
2022/11/30 05:51:18;;;;;;;31.75;12.80;;;7.70;99.90;;;;;;4940948;29;20035;-68
2022/11/30 05:53:44;;;;;;;32.58;11.68;;;7.70;99.90;;;;;;4927744;29;20494;-68
2022/11/30 05:56:18;;;;;;;31.55;12.77;;;7.70;99.90;;;;;;4928867;29;20043;-68
2022/11/30 05:58:45;;;;;;;27.77;12.75;;;7.70;99.90;;;;;;4927795;29;20127;-68
2022/11/30 06:01:23;;;;;;;30.17;12.50;;;7.70;99.90;;;;;;4928352;29;20040;-68
2022/11/30 06:03:49;;;;;;;28.08;12.55;;;7.60;99.90;;;;;;4937415;29;20048;-68
2022/11/30 06:06:15;;;;;;;28.58;11.65;;;7.50;99.90;;;;;;4928105;29;20115;-68
2022/11/30 06:08:41;;;;;;;30.55;11.65;;;7.50;99.90;;;;;;4944534;28;20129;-68
2022/11/30 06:11:07;;;;;;;29.48;12.10;;;7.30;99.90;;;;;;4946016;28;20039;-68
2022/11/30 06:13:33;;;;;;;26.98;11.88;;;7.30;99.90;;;;;;4944570;28;20540;-68
2022/11/30 06:16:03;;;;;;;28.15;12.23;;;7.30;99.90;;;;;;4938115;29;20039;-68
2022/11/30 06:18:28;;;;;;;25.90;11.00;;;7.30;99.90;;;;;;4944499;28;20050;-68
2022/11/30 06:20:58;;;;;;;24.70;10.57;;;7.20;99.90;;;;;;4946288;28;20035;-68
2022/11/30 06:23:24;;;;;;;27.60;11.90;;;7.20;99.90;;;;;;4946101;28;20122;-68
2022/11/30 06:25:50;;;;;;;23.38;11.05;;;7.20;99.90;;;;;;4945035;29;20455;-68
2022/11/30 06:28:15;;;;;;;24.95;11.60;;;7.10;99.90;;;;;;4943970;28;20053;-68
2022/11/30 06:30:41;;;;;;;28.95;11.32;;;7.00;99.90;;;;;;4946594;28;20103;-68
2022/11/30 06:33:06;;;;;;;23.25;10.27;;;6.90;99.90;;;;;;4945059;29;20466;-68
2022/11/30 06:35:32;;;;;;;23.48;10.23;;;6.80;99.90;;;;;;4947061;28;20027;-68
2022/11/30 06:37:59;;;;;;;20.52;8.63;;;6.70;99.90;;;;;;4945375;28;20043;-68
2022/11/30 06:40:25;;;;;;;27.38;11.15;;;6.60;99.90;;;;;;4938908;28;20027;-68
2022/11/30 06:42:50;;;;;;;27.90;9.57;;;6.50;99.90;;;;;;4946286;29;20082;-68
2022/11/30 06:45:16;;;;;;;21.75;10.63;;;6.40;99.90;;;;;;4945285;28;20059;-68
2022/11/30 06:47:42;;;;;;;24.13;10.07;;;6.40;99.90;;;;;;4945851;29;20549;-68
2022/11/30 06:50:08;;;;;;;18.27;8.35;;;6.20;99.90;;;;;;4945575;28;20540;-68
2022/11/30 06:52:34;;;;;;;20.98;9.05;;;6.20;99.90;;;;;;4937653;29;20032;-68
2022/11/30 06:55:00;;;;;;;25.73;10.73;;;6.20;99.90;;;;;;4927951;29;20413;-68
2022/11/30 06:57:29;;;;;;;22.35;10.05;;;6.30;99.90;;;;;;4944381;28;20066;-67
2022/11/30 06:59:55;;;;;;;26.27;11.10;;;6.30;99.90;;;;;;4946923;28;20065;-68
2022/11/30 07:02:21;;;;;;;25.88;10.65;;;6.40;99.90;;;;;;4945310;28;20118;-68
2022/11/30 07:04:47;;;;;;;25.85;10.80;;;6.50;99.90;;;;;;4939214;28;20041;-68
2022/11/30 07:07:13;;;;;;;23.42;10.55;;;6.60;99.90;;;;;;4936414;28;20023;-68
2022/11/30 07:09:38;;;;;;;25.67;9.63;;;6.60;99.90;;;;;;4936671;29;20028;-68
2022/11/30 07:12:04;;;;;;;28.00;9.52;;;6.70;99.90;;;;;;4936988;29;20051;-68
2022/11/30 07:14:30;;;;;;;22.45;9.48;;;6.80;99.90;;;;;;4945483;29;20039;-68
2022/11/30 07:16:56;;;;;;;25.58;9.57;;;6.90;99.90;;;;;;4938369;28;20031;-68
2022/11/30 07:19:23;;;;;;;20.45;9.18;;;6.90;99.90;;;;;;4944256;28;20027;-68
2022/11/30 07:21:48;;;;;;;21.15;9.98;;;6.90;99.90;;;;;;4942940;29;20031;-68
2022/11/30 07:27:01;;;;;;;23.17;10.25;;;7.10;99.90;;;;;;4937067;29;20143;-68
2022/11/30 07:29:26;;;;;;;22.52;10.77;;;7.10;99.90;;;;;;4918581;28;20027;-68
2022/11/30 07:31:53;;;;;;;21.38;10.85;;;7.10;99.90;;;;;;4934795;28;20024;-68
2022/11/30 07:34:19;;;;;;;23.05;10.18;;;7.10;99.90;;;;;;4939476;29;20490;-68
2022/11/30 07:36:45;;;;;;;22.90;9.25;;;7.10;99.90;;;;;;4941888;28;20035;-68
2022/11/30 07:39:12;;;;;;;22.92;10.38;;;7.10;99.90;;;;;;4922118;29;20038;-68
2022/11/30 07:41:38;;;;;;;24.48;10.40;;;7.10;99.90;;;;;;4933544;29;20525;-68
2022/11/30 07:44:05;;;;;;;23.63;10.43;;;7.00;99.90;;;;;;4929050;29;20179;-68
2022/11/30 07:46:34;;;;;;;23.13;9.98;;;7.10;99.90;;;;;;4936027;29;20027;-68
2022/11/30 07:49:03;;;;;;;20.85;9.77;;;7.20;99.90;;;;;;4935535;28;20031;-68
2022/11/30 07:51:29;;;;;;;20.52;9.05;;;7.30;99.90;;;;;;4940242;28;20031;-68
2022/11/30 07:53:55;;;;;;;20.35;9.68;;;7.40;99.90;;;;;;4941495;29;20540;-69
2022/11/30 07:56:21;;;;;;;17.80;9.15;;;7.40;99.90;;;;;;4942764;28;20042;-67
2022/11/30 07:58:49;;;;;;;18.02;9.40;;;7.50;99.90;;;;;;4944454;28;20124;-68
2022/11/30 08:01:21;;;;;;;23.90;9.82;;;7.50;99.90;;;;;;4936921;29;20446;-69
2022/11/30 08:03:47;;;;;;;22.33;10.15;;;7.60;99.90;;;;;;4926545;28;20054;-69
2022/11/30 08:06:21;;;;;;;23.80;10.13;;;7.60;99.90;;;;;;4938731;28;20031;-68
2022/11/30 08:08:48;;;;;;;24.85;9.95;;;7.70;99.90;;;;;;4939717;28;20046;-68
2022/11/30 08:11:16;;;;;;;22.48;9.90;;;7.80;99.90;;;;;;4942204;28;20047;-68
2022/11/30 08:13:42;;;;;;;29.02;10.75;;;7.80;99.90;;;;;;4938571;29;20221;-68
2022/11/30 08:16:11;;;;;;;24.55;10.48;;;7.90;99.90;;;;;;4945099;28;20131;-68
2022/11/30 08:18:37;;;;;;;22.13;10.15;;;7.90;99.90;;;;;;4927945;29;20031;-68
2022/11/30 08:21:05;;;;;;;21.80;9.27;;;7.90;99.90;;;;;;4942128;28;20027;-68
2022/11/30 08:23:33;;;;;;;22.30;10.13;;;7.90;99.90;;;;;;4939755;28;20513;-68
2022/11/30 08:26:05;;;;;;;18.80;9.57;;;7.90;99.90;;;;;;4944725;29;20035;-68
2022/11/30 08:28:31;;;;;;;17.83;8.48;;;7.90;99.90;;;;;;4943302;28;20423;-68
2022/11/30 08:31:01;;;;;;;19.70;9.80;;;7.90;99.90;;;;;;4942602;29;20037;-68
2022/11/30 08:33:26;;;;;;;17.35;8.65;;;8.00;99.90;;;;;;4943937;28;20035;-67
2022/11/30 08:35:52;;;;;;;19.27;8.82;;;8.00;99.90;;;;;;4941415;28;20060;-68
2022/11/30 08:38:18;;;;;;;19.58;8.27;;;8.00;99.90;;;;;;4940644;28;20374;-69
2022/11/30 08:40:43;;;;;;;17.27;7.90;;;8.10;99.90;;;;;;4938833;29;20055;-68
2022/11/30 08:43:09;;;;;;;15.82;8.25;;;8.10;99.90;;;;;;4925145;29;21318;-69
2022/11/30 08:45:34;;;;;;;12.55;7.28;;;8.20;99.90;;;;;;4938747;29;20132;-69
2022/11/30 08:48:00;;;;;;;12.65;7.55;;;8.30;99.90;;;;;;4936973;29;20027;-68
2022/11/30 08:50:26;;;;;;;14.43;7.75;;;8.30;99.90;;;;;;4939252;29;20066;-69
2022/11/30 08:52:54;;;;;;;16.02;7.45;;;8.40;99.90;;;;;;4930721;28;20550;-69
2022/11/30 08:55:19;;;;;;;14.88;7.47;;;8.40;99.90;;;;;;4938104;29;20035;-68
2022/11/30 08:57:45;;;;;;;13.88;6.82;;;8.40;99.90;;;;;;4935161;29;20040;-69
2022/11/30 09:00:11;;;;;;;11.55;6.60;;;8.40;99.90;;;;;;4933764;28;20055;-69
2022/11/30 09:02:37;;;;;;;12.40;6.63;;;8.50;99.90;;;;;;4937227;28;20093;-69
2022/11/30 09:05:03;;;;;;;15.88;7.60;;;8.50;99.90;;;;;;4928458;29;20495;-69
2022/11/30 09:07:29;;;;;;;13.55;6.78;;;8.50;99.90;;;;;;4939082;29;20027;-69
2022/11/30 09:09:55;;;;;;;14.57;6.68;;;8.60;99.90;;;;;;4934766;28;20044;-69
2022/11/30 09:12:20;;;;;;;12.50;7.10;;;8.60;99.90;;;;;;4938145;29;20626;-69
2022/11/30 09:14:47;;;;;;;15.70;7.15;;;8.70;99.90;;;;;;4940864;29;20137;-69
2022/11/30 09:17:12;;;;;;;13.90;6.88;;;8.90;99.90;;;;;;4941810;29;20049;-69
2022/11/30 09:19:38;;;;;;;10.48;6.75;;;9.00;99.90;;;;;;4926057;28;20737;-69
2022/11/30 09:22:04;;;;;;;12.75;6.97;;;9.10;99.90;;;;;;4940500;29;20123;-69
2022/11/30 09:24:30;;;;;;;14.52;7.22;;;9.20;99.90;;;;;;4942276;28;20130;-69
2022/11/30 09:26:56;;;;;;;11.00;6.65;;;9.20;99.90;;;;;;4938525;29;20097;-69
2022/11/30 09:29:22;;;;;;;11.48;6.85;;;9.20;99.90;;;;;;4936803;29;20038;-69
2022/11/30 09:31:48;;;;;;;13.75;7.10;;;9.30;99.90;;;;;;4931583;29;20028;-69
2022/11/30 09:34:13;;;;;;;12.23;7.10;;;9.50;99.90;;;;;;4928847;28;20050;-69
2022/11/30 09:36:39;;;;;;;11.30;6.72;;;9.80;99.90;;;;;;4936877;28;20039;-69
2022/11/30 09:39:05;;;;;;;11.40;6.63;;;9.80;99.90;;;;;;4938752;28;20143;-69
2022/11/30 09:41:49;;;;;;;14.35;7.05;;;10.00;99.90;;;;;;4921540;29;20504;-69
2022/11/30 09:44:42;;;;;;;10.75;6.57;;;10.20;99.90;;;;;;4936691;29;20326;-69
2022/11/30 09:47:45;;;;;;;11.57;6.90;;;10.30;99.90;;;;;;4937107;28;20035;-69
2022/11/30 09:50:17;;;;;;;14.23;6.95;;;10.50;99.90;;;;;;4939986;29;20031;-69
2022/11/30 09:52:51;;;;;;;10.77;6.80;;;10.70;99.60;;;;;;4946046;29;20035;-69
2022/11/30 09:55:26;;;;;;;14.48;7.07;;;10.90;98.40;;;;;;4939669;28;20163;-69
2022/11/30 09:57:55;;;;;;;11.45;6.80;;;11.20;97.20;;;;;;4928848;28;20443;-69
2022/11/30 10:00:22;;;;;;;11.95;6.88;;;11.60;97.30;;;;;;4943824;29;20047;-69
2022/11/30 10:40:13;;;;;;;10.07;5.00;;;12.30;93.60;;;;;;5437979;23;20055;-67
2022/11/30 10:42:58;;;;;;;9.57;5.30;;;12.40;94.10;;;;;;4907937;28;20489;-68
2022/11/30 10:45:25;;;;;;;10.13;5.50;;;12.60;93.00;;;;;;4905363;28;20376;-67
2022/11/30 10:48:16;;;;;;;8.80;5.07;;;13.30;91.30;;;;;;4922546;29;20035;-69
2022/11/30 10:50:42;;;;;;;8.13;3.95;;;14.00;90.10;;;;;;4927983;28;20679;-67
2022/11/30 10:53:10;;;;;;;8.57;3.80;;;14.20;79.20;;;;;;4929836;28;20044;-69
2022/11/30 10:55:42;;;;;;;8.65;4.35;;;13.90;81.90;;;;;;4935635;29;20462;-68
2022/11/30 10:58:26;;;;;;;8.88;4.22;;;13.80;83.70;;;;;;4926294;28;20058;-68
2022/11/30 11:01:08;;;;;;;8.20;4.00;;;13.80;84.50;;;;;;4918237;28;20460;-68
2022/11/30 11:03:34;;;;;;;9.32;4.00;;;14.10;82.50;;;;;;4933694;28;20039;-69
2022/11/30 11:06:22;;;;;;;8.30;4.43;;;14.00;81.00;;;;;;4936150;29;20038;-68
2022/11/30 11:08:49;;;;;;;8.35;4.50;;;13.70;82.40;;;;;;4934633;28;20612;-68
2022/11/30 11:11:34;;;;;;;5.38;3.92;;;13.70;83.30;;;;;;4924456;28;20078;-68
2022/11/30 11:14:32;;;;;;;8.07;4.03;;;14.00;84.40;;;;;;4932082;28;20035;-68
2022/11/30 11:17:05;;;;;;;6.70;3.90;;;13.70;85.00;;;;;;4916907;28;20071;-68
2022/11/30 11:19:32;;;;;;;8.63;4.05;;;13.80;83.80;;;;;;4938252;28;20232;-68
2022/11/30 11:22:19;;;;;;;11.10;4.38;;;14.10;84.90;;;;;;4933842;28;20090;-68
2022/11/30 11:24:46;;;;;;;7.25;3.75;;;14.20;83.40;;;;;;4937143;29;20047;-68
2022/11/30 11:27:24;;;;;;;7.78;3.80;;;14.20;85.00;;;;;;4935336;28;20446;-68
2022/11/30 11:30:28;;;;;;;8.20;3.90;;;14.20;83.00;;;;;;4939438;28;20475;-68
2022/11/30 11:33:02;;;;;;;6.18;4.00;;;13.80;84.80;;;;;;4915852;29;20434;-68
2022/11/30 11:35:51;;;;;;;6.63;3.80;;;13.10;88.30;;;;;;4922340;28;20035;-68
2022/11/30 11:38:37;;;;;;;8.13;4.40;;;12.50;90.70;;;;;;4936168;28;20054;-68
2022/11/30 11:41:15;;;;;;;7.53;4.18;;;12.10;93.10;;;;;;4933563;28;20145;-68
2022/11/30 11:43:55;;;;;;;9.02;4.03;;;12.20;94.00;;;;;;4938071;28;20439;-68
2022/11/30 11:46:21;;;;;;;7.13;3.80;;;12.50;92.90;;;;;;4913099;28;20070;-69
2022/11/30 11:48:57;;;;;;;8.38;4.05;;;12.70;92.20;;;;;;4930386;29;20178;-68
2022/11/30 11:51:37;;;;;;;6.85;3.70;;;12.70;91.80;;;;;;4936350;29;20487;-68
2022/11/30 11:54:18;;;;;;;8.50;3.45;;;12.60;91.00;;;;;;4937406;28;20086;-68
2022/11/30 11:56:45;;;;;;;4.93;3.08;;;12.50;91.70;;;;;;4936720;29;20051;-69
2022/11/30 11:59:32;;;;;;;4.70;2.95;;;12.30;93.40;;;;;;4933681;28;20027;-69
2022/11/30 12:01:57;;;;;;;5.03;2.40;;;12.10;92.80;;;;;;4936355;28;20158;-69
2022/11/30 12:04:41;;;;;;;4.15;1.90;;;11.70;94.20;;;;;;4936957;28;20046;-69
2022/11/30 12:07:32;;;;;;;6.85;2.40;;;11.90;93.60;;;;;;4917223;29;20439;-68
2022/11/30 12:10:23;;;;;;;4.43;1.75;;;12.20;93.50;;;;;;4931342;28;20715;-68
2022/11/30 12:12:48;;;;;;;6.00;2.03;;;12.60;90.90;;;;;;4919244;28;20300;-69
2022/11/30 12:15:14;;;;;;;5.22;1.80;;;13.40;90.10;;;;;;4931123;28;20058;-68
2022/11/30 12:18:10;;;;;;;5.95;1.90;;;14.10;85.60;;;;;;4932185;29;20119;-69
2022/11/30 12:21:09;;;;;;;3.47;1.50;;;14.90;81.90;;;;;;4931680;28;20031;-69
2022/11/30 12:23:56;;;;;;;3.08;1.42;;;15.60;74.60;;;;;;4929535;28;20043;-68
2022/11/30 12:26:35;;;;;;;6.93;1.65;;;16.00;70.90;;;;;;4925839;29;20365;-68
2022/11/30 12:29:23;;;;;;;6.18;1.90;;;16.00;66.50;;;;;;4934337;29;20154;-68
2022/11/30 12:32:07;;;;;;;6.07;2.15;;;15.80;69.70;;;;;;4932219;29;20591;-68
2022/11/30 12:35:04;;;;;;;3.88;1.52;;;15.30;69.30;;;;;;4930474;29;20038;-69
2022/11/30 12:37:45;;;;;;;2.72;1.52;;;15.30;70.90;;;;;;4935584;28;20781;-68
2022/11/30 12:40:26;;;;;;;4.63;1.45;;;15.30;72.70;;;;;;4935569;28;20530;-68
2022/11/30 12:43:00;;;;;;;2.35;1.52;;;14.80;70.80;;;;;;4937895;28;20043;-68
2022/11/30 12:45:36;;;;;;;3.88;1.70;;;14.10;74.90;;;;;;4937281;28;20115;-68
2022/11/30 12:48:25;;;;;;;4.20;1.70;;;13.80;81.60;;;;;;4926876;28;20063;-68
2022/11/30 12:51:14;;;;;;;4.80;1.85;;;14.00;77.20;;;;;;4915630;28;20673;-68
2022/11/30 12:53:55;;;;;;;5.60;2.35;;;14.30;81.80;;;;;;4915523;28;20055;-68
2022/11/30 12:56:31;;;;;;;7.78;2.20;;;14.40;77.40;;;;;;4913219;28;20391;-68
2022/11/30 12:59:18;;;;;;;9.23;2.20;;;14.60;72.50;;;;;;4921048;28;20031;-68
2022/11/30 13:02:09;;;;;;;5.70;2.05;;;14.90;77.60;;;;;;4919289;28;20620;-69
2022/11/30 13:04:43;;;;;;;4.18;2.05;;;15.40;74.90;;;;;;4928346;28;20142;-68
2022/11/30 13:07:19;;;;;;;4.47;2.05;;;15.60;78.50;;;;;;4930123;28;20035;-68
2022/11/30 13:10:11;;;;;;;5.43;2.00;;;15.20;67.30;;;;;;4931724;28;20398;-67
2022/11/30 13:12:37;;;;;;;;;;;15.30;71.50;;;;;;4932779;28;20604;-68
2022/11/30 13:15:18;;;;;;;7.60;2.10;;;15.50;71.70;;;;;;4933532;28;20429;-68
2022/11/30 13:17:45;;;;;;;6.05;2.20;;;15.50;70.20;;;;;;4933535;28;20034;-68
2022/11/30 13:20:29;;;;;;;5.45;1.85;;;15.70;68.60;;;;;;4926755;28;20035;-68
2022/11/30 13:23:20;;;;;;;4.38;1.60;;;15.60;68.60;;;;;;4925458;28;20158;-68
2022/11/30 13:26:06;;;;;;;4.60;1.90;;;15.50;70.10;;;;;;4924177;28;20035;-68
2022/11/30 13:28:41;;;;;;;6.10;2.10;;;15.20;67.90;;;;;;4929595;28;20462;-68
2022/11/30 13:31:18;;;;;;;4.68;1.45;;;15.00;68.30;;;;;;4922130;28;20040;-68
2022/11/30 13:33:53;;;;;;;7.32;2.10;;;14.20;71.70;;;;;;4928221;29;20102;-67
2022/11/30 13:36:33;;;;;;;3.17;1.75;;;13.70;76.20;;;;;;4939084;28;20023;-68